sensor_id;sensor_type;location;lat;lon;timestamp;P1;durP1;ratioP1;P2;durP2;ratioP2
14686;SDS011;7431;49.440;11.084;2023-08-06T00:00:06;3.55;;;3.20;;
14686;SDS011;7431;49.440;11.084;2023-08-06T00:02:33;2.97;;;2.67;;
14686;SDS011;7431;49.440;11.084;2023-08-06T00:04:59;3.33;;;3.03;;
14686;SDS011;7431;49.440;11.084;2023-08-06T00:07:25;2.90;;;2.70;;
14686;SDS011;7431;49.440;11.084;2023-08-06T00:09:51;3.92;;;2.65;;
14686;SDS011;7431;49.440;11.084;2023-08-06T00:12:17;3.33;;;2.80;;
14686;SDS011;7431;49.440;11.084;2023-08-06T00:14:43;3.30;;;2.87;;
14686;SDS011;7431;49.440;11.084;2023-08-06T00:17:09;3.23;;;2.90;;
14686;SDS011;7431;49.440;11.084;2023-08-06T00:19:35;4.43;;;2.90;;
14686;SDS011;7431;49.440;11.084;2023-08-06T00:22:01;2.70;;;2.50;;
14686;SDS011;7431;49.440;11.084;2023-08-06T00:24:27;3.10;;;2.50;;
14686;SDS011;7431;49.440;11.084;2023-08-06T00:26:53;2.83;;;2.53;;
14686;SDS011;7431;49.440;11.084;2023-08-06T00:29:19;5.07;;;2.50;;
14686;SDS011;7431;49.440;11.084;2023-08-06T00:31:45;4.20;;;3.03;;
14686;SDS011;7431;49.440;11.084;2023-08-06T00:34:11;3.20;;;2.70;;
14686;SDS011;7431;49.440;11.084;2023-08-06T00:36:37;2.90;;;2.57;;
14686;SDS011;7431;49.440;11.084;2023-08-06T00:39:03;2.80;;;2.60;;
14686;SDS011;7431;49.440;11.084;2023-08-06T00:41:31;3.27;;;2.70;;
14686;SDS011;7431;49.440;11.084;2023-08-06T00:43:57;2.70;;;2.45;;
14686;SDS011;7431;49.440;11.084;2023-08-06T00:46:23;2.90;;;2.60;;
14686;SDS011;7431;49.440;11.084;2023-08-06T00:48:50;3.13;;;2.83;;
14686;SDS011;7431;49.440;11.084;2023-08-06T00:51:16;2.95;;;2.63;;
14686;SDS011;7431;49.440;11.084;2023-08-06T00:53:42;2.50;;;2.30;;
14686;SDS011;7431;49.440;11.084;2023-08-06T00:56:08;3.57;;;2.97;;
14686;SDS011;7431;49.440;11.084;2023-08-06T00:58:35;3.33;;;3.03;;
14686;SDS011;7431;49.440;11.084;2023-08-06T01:01:01;2.70;;;2.50;;
14686;SDS011;7431;49.440;11.084;2023-08-06T01:03:27;3.05;;;2.67;;
14686;SDS011;7431;49.440;11.084;2023-08-06T01:05:53;3.05;;;2.78;;
14686;SDS011;7431;49.440;11.084;2023-08-06T01:08:30;3.10;;;2.57;;
14686;SDS011;7431;49.440;11.084;2023-08-06T01:11:21;2.57;;;2.37;;
14686;SDS011;7431;49.440;11.084;2023-08-06T01:13:50;2.67;;;2.47;;
14686;SDS011;7431;49.440;11.084;2023-08-06T01:16:20;2.70;;;2.47;;
14686;SDS011;7431;49.440;11.084;2023-08-06T01:18:46;2.70;;;2.50;;
14686;SDS011;7431;49.440;11.084;2023-08-06T01:21:14;2.60;;;2.40;;
14686;SDS011;7431;49.440;11.084;2023-08-06T01:23:41;2.58;;;2.38;;
14686;SDS011;7431;49.440;11.084;2023-08-06T01:26:24;3.70;;;3.00;;
14686;SDS011;7431;49.440;11.084;2023-08-06T01:31:20;3.50;;;2.40;;
14686;SDS011;7431;49.440;11.084;2023-08-06T01:33:47;3.17;;;2.83;;
14686;SDS011;7431;49.440;11.084;2023-08-06T01:36:18;4.00;;;2.80;;
14686;SDS011;7431;49.440;11.084;2023-08-06T01:38:44;4.40;;;2.67;;
14686;SDS011;7431;49.440;11.084;2023-08-06T01:41:10;2.90;;;2.70;;
14686;SDS011;7431;49.440;11.084;2023-08-06T01:43:36;3.90;;;2.60;;
14686;SDS011;7431;49.440;11.084;2023-08-06T01:46:02;3.00;;;2.70;;
14686;SDS011;7431;49.440;11.084;2023-08-06T01:48:28;2.80;;;2.50;;
14686;SDS011;7431;49.440;11.084;2023-08-06T01:50:54;3.93;;;2.50;;
14686;SDS011;7431;49.440;11.084;2023-08-06T01:53:20;2.50;;;2.30;;
14686;SDS011;7431;49.440;11.084;2023-08-06T01:55:49;5.33;;;3.90;;
14686;SDS011;7431;49.440;11.084;2023-08-06T01:58:15;2.70;;;2.23;;
14686;SDS011;7431;49.440;11.084;2023-08-06T02:00:41;2.60;;;2.40;;
14686;SDS011;7431;49.440;11.084;2023-08-06T02:03:07;2.23;;;2.10;;
14686;SDS011;7431;49.440;11.084;2023-08-06T02:05:33;2.53;;;2.10;;
14686;SDS011;7431;49.440;11.084;2023-08-06T02:07:59;3.83;;;2.40;;
14686;SDS011;7431;49.440;11.084;2023-08-06T02:10:25;3.03;;;2.13;;
14686;SDS011;7431;49.440;11.084;2023-08-06T02:12:51;3.53;;;2.43;;
14686;SDS011;7431;49.440;11.084;2023-08-06T02:15:17;2.00;;;1.80;;
14686;SDS011;7431;49.440;11.084;2023-08-06T02:17:43;4.97;;;2.03;;
14686;SDS011;7431;49.440;11.084;2023-08-06T02:20:09;2.63;;;2.10;;
14686;SDS011;7431;49.440;11.084;2023-08-06T02:22:35;2.47;;;2.27;;
14686;SDS011;7431;49.440;11.084;2023-08-06T02:25:01;2.63;;;2.13;;
14686;SDS011;7431;49.440;11.084;2023-08-06T02:27:27;2.53;;;2.33;;
14686;SDS011;7431;49.440;11.084;2023-08-06T02:29:53;2.50;;;2.30;;
14686;SDS011;7431;49.440;11.084;2023-08-06T02:32:19;2.60;;;2.40;;
14686;SDS011;7431;49.440;11.084;2023-08-06T02:34:45;3.30;;;2.30;;
14686;SDS011;7431;49.440;11.084;2023-08-06T02:37:11;3.25;;;2.35;;
14686;SDS011;7431;49.440;11.084;2023-08-06T02:39:37;3.37;;;2.13;;
14686;SDS011;7431;49.440;11.084;2023-08-06T02:42:06;2.13;;;1.93;;
14686;SDS011;7431;49.440;11.084;2023-08-06T02:44:32;3.63;;;2.40;;
14686;SDS011;7431;49.440;11.084;2023-08-06T02:46:58;2.20;;;2.00;;
14686;SDS011;7431;49.440;11.084;2023-08-06T02:49:24;2.70;;;2.17;;
14686;SDS011;7431;49.440;11.084;2023-08-06T02:51:50;2.10;;;1.90;;
14686;SDS011;7431;49.440;11.084;2023-08-06T02:54:17;2.73;;;2.10;;
14686;SDS011;7431;49.440;11.084;2023-08-06T02:56:43;2.78;;;1.98;;
14686;SDS011;7431;49.440;11.084;2023-08-06T02:59:10;2.50;;;2.27;;
14686;SDS011;7431;49.440;11.084;2023-08-06T03:01:36;2.17;;;1.97;;
14686;SDS011;7431;49.440;11.084;2023-08-06T03:04:02;2.73;;;2.40;;
14686;SDS011;7431;49.440;11.084;2023-08-06T03:06:28;2.80;;;2.50;;
14686;SDS011;7431;49.440;11.084;2023-08-06T03:08:54;3.90;;;2.93;;
14686;SDS011;7431;49.440;11.084;2023-08-06T03:11:20;3.23;;;2.93;;
14686;SDS011;7431;49.440;11.084;2023-08-06T03:13:47;3.50;;;2.95;;
14686;SDS011;7431;49.440;11.084;2023-08-06T03:16:13;2.80;;;2.50;;
14686;SDS011;7431;49.440;11.084;2023-08-06T03:18:39;2.92;;;2.55;;
14686;SDS011;7431;49.440;11.084;2023-08-06T03:21:05;3.37;;;2.70;;
14686;SDS011;7431;49.440;11.084;2023-08-06T03:23:31;2.17;;;1.97;;
14686;SDS011;7431;49.440;11.084;2023-08-06T03:26:01;2.83;;;1.93;;
14686;SDS011;7431;49.440;11.084;2023-08-06T03:28:27;2.30;;;2.10;;
14686;SDS011;7431;49.440;11.084;2023-08-06T03:31:00;1.77;;;1.67;;
14686;SDS011;7431;49.440;11.084;2023-08-06T03:33:26;2.20;;;2.00;;
14686;SDS011;7431;49.440;11.084;2023-08-06T03:35:52;1.80;;;1.70;;
14686;SDS011;7431;49.440;11.084;2023-08-06T03:38:18;1.73;;;1.57;;
14686;SDS011;7431;49.440;11.084;2023-08-06T03:40:45;1.97;;;1.80;;
14686;SDS011;7431;49.440;11.084;2023-08-06T03:43:11;1.83;;;1.73;;
14686;SDS011;7431;49.440;11.084;2023-08-06T03:45:37;2.20;;;2.00;;
14686;SDS011;7431;49.440;11.084;2023-08-06T03:48:04;3.97;;;2.10;;
14686;SDS011;7431;49.440;11.084;2023-08-06T03:50:30;2.03;;;1.83;;
14686;SDS011;7431;49.440;11.084;2023-08-06T03:52:55;2.50;;;1.97;;
14686;SDS011;7431;49.440;11.084;2023-08-06T03:55:21;2.10;;;1.90;;
14686;SDS011;7431;49.440;11.084;2023-08-06T03:57:47;2.17;;;1.80;;
14686;SDS011;7431;49.440;11.084;2023-08-06T04:00:13;3.10;;;2.07;;
14686;SDS011;7431;49.440;11.084;2023-08-06T04:02:39;2.30;;;1.97;;
14686;SDS011;7431;49.440;11.084;2023-08-06T04:05:05;4.00;;;2.10;;
14686;SDS011;7431;49.440;11.084;2023-08-06T04:07:31;2.43;;;1.97;;
14686;SDS011;7431;49.440;11.084;2023-08-06T04:09:58;1.97;;;1.87;;
14686;SDS011;7431;49.440;11.084;2023-08-06T04:12:24;2.20;;;2.00;;
14686;SDS011;7431;49.440;11.084;2023-08-06T04:14:50;1.93;;;1.83;;
14686;SDS011;7431;49.440;11.084;2023-08-06T04:17:20;3.60;;;2.07;;
14686;SDS011;7431;49.440;11.084;2023-08-06T04:19:47;2.07;;;1.83;;
14686;SDS011;7431;49.440;11.084;2023-08-06T04:22:13;2.33;;;2.13;;
14686;SDS011;7431;49.440;11.084;2023-08-06T04:24:39;2.77;;;2.33;;
14686;SDS011;7431;49.440;11.084;2023-08-06T04:27:05;2.40;;;2.20;;
14686;SDS011;7431;49.440;11.084;2023-08-06T04:29:31;5.43;;;2.03;;
14686;SDS011;7431;49.440;11.084;2023-08-06T04:31:57;3.33;;;2.13;;
14686;SDS011;7431;49.440;11.084;2023-08-06T04:34:23;2.30;;;2.10;;
14686;SDS011;7431;49.440;11.084;2023-08-06T04:36:49;2.33;;;2.03;;
14686;SDS011;7431;49.440;11.084;2023-08-06T04:39:15;2.23;;;2.03;;
14686;SDS011;7431;49.440;11.084;2023-08-06T04:41:41;2.30;;;2.10;;
14686;SDS011;7431;49.440;11.084;2023-08-06T04:44:07;4.93;;;2.20;;
14686;SDS011;7431;49.440;11.084;2023-08-06T04:46:33;2.43;;;2.10;;
14686;SDS011;7431;49.440;11.084;2023-08-06T04:48:59;2.10;;;2.00;;
14686;SDS011;7431;49.440;11.084;2023-08-06T04:51:25;4.33;;;2.27;;
14686;SDS011;7431;49.440;11.084;2023-08-06T04:53:51;2.57;;;2.37;;
14686;SDS011;7431;49.440;11.084;2023-08-06T04:56:17;3.27;;;2.40;;
14686;SDS011;7431;49.440;11.084;2023-08-06T04:58:43;3.40;;;2.40;;
14686;SDS011;7431;49.440;11.084;2023-08-06T05:01:09;3.30;;;2.20;;
14686;SDS011;7431;49.440;11.084;2023-08-06T05:03:35;2.63;;;2.43;;
14686;SDS011;7431;49.440;11.084;2023-08-06T05:06:01;3.00;;;2.20;;
14686;SDS011;7431;49.440;11.084;2023-08-06T05:08:27;2.30;;;2.10;;
14686;SDS011;7431;49.440;11.084;2023-08-06T05:10:53;2.50;;;2.30;;
14686;SDS011;7431;49.440;11.084;2023-08-06T05:13:19;2.57;;;2.33;;
14686;SDS011;7431;49.440;11.084;2023-08-06T05:15:45;2.70;;;2.50;;
14686;SDS011;7431;49.440;11.084;2023-08-06T05:18:11;2.40;;;2.20;;
14686;SDS011;7431;49.440;11.084;2023-08-06T05:20:41;3.40;;;2.57;;
14686;SDS011;7431;49.440;11.084;2023-08-06T05:23:07;2.80;;;2.20;;
14686;SDS011;7431;49.440;11.084;2023-08-06T05:25:36;2.95;;;2.08;;
14686;SDS011;7431;49.440;11.084;2023-08-06T05:28:02;2.17;;;1.97;;
14686;SDS011;7431;49.440;11.084;2023-08-06T05:30:28;2.15;;;1.92;;
14686;SDS011;7431;49.440;11.084;2023-08-06T05:32:54;2.25;;;2.05;;
14686;SDS011;7431;49.440;11.084;2023-08-06T05:35:21;2.40;;;2.20;;
14686;SDS011;7431;49.440;11.084;2023-08-06T05:37:47;2.40;;;2.05;;
14686;SDS011;7431;49.440;11.084;2023-08-06T05:40:13;2.35;;;2.15;;
14686;SDS011;7431;49.440;11.084;2023-08-06T05:42:39;2.15;;;1.95;;
14686;SDS011;7431;49.440;11.084;2023-08-06T05:45:06;2.13;;;2.00;;
14686;SDS011;7431;49.440;11.084;2023-08-06T05:47:32;2.13;;;1.90;;
14686;SDS011;7431;49.440;11.084;2023-08-06T05:49:58;2.30;;;2.10;;
14686;SDS011;7431;49.440;11.084;2023-08-06T05:52:24;2.47;;;1.92;;
14686;SDS011;7431;49.440;11.084;2023-08-06T05:54:50;2.65;;;2.00;;
14686;SDS011;7431;49.440;11.084;2023-08-06T05:57:16;2.83;;;2.10;;
14686;SDS011;7431;49.440;11.084;2023-08-06T05:59:43;3.08;;;2.10;;
14686;SDS011;7431;49.440;11.084;2023-08-06T06:02:08;2.22;;;2.03;;
14686;SDS011;7431;49.440;11.084;2023-08-06T06:04:34;2.60;;;2.40;;
14686;SDS011;7431;49.440;11.084;2023-08-06T06:07:00;2.42;;;2.00;;
14686;SDS011;7431;49.440;11.084;2023-08-06T06:09:27;2.05;;;1.80;;
14686;SDS011;7431;49.440;11.084;2023-08-06T06:11:53;3.00;;;1.75;;
14686;SDS011;7431;49.440;11.084;2023-08-06T06:14:19;2.20;;;2.00;;
14686;SDS011;7431;49.440;11.084;2023-08-06T06:16:45;2.10;;;1.90;;
14686;SDS011;7431;49.440;11.084;2023-08-06T06:19:11;1.67;;;1.58;;
14686;SDS011;7431;49.440;11.084;2023-08-06T06:21:37;3.25;;;1.85;;
14686;SDS011;7431;49.440;11.084;2023-08-06T06:24:04;2.00;;;1.80;;
14686;SDS011;7431;49.440;11.084;2023-08-06T06:26:31;2.22;;;1.88;;
14686;SDS011;7431;49.440;11.084;2023-08-06T06:28:57;1.88;;;1.67;;
14686;SDS011;7431;49.440;11.084;2023-08-06T06:31:23;1.83;;;1.55;;
14686;SDS011;7431;49.440;11.084;2023-08-06T06:33:49;3.47;;;1.98;;
14686;SDS011;7431;49.440;11.084;2023-08-06T06:36:15;2.00;;;1.80;;
14686;SDS011;7431;49.440;11.084;2023-08-06T06:38:41;1.98;;;1.77;;
14686;SDS011;7431;49.440;11.084;2023-08-06T06:41:07;2.20;;;2.00;;
14686;SDS011;7431;49.440;11.084;2023-08-06T06:43:33;3.60;;;1.98;;
14686;SDS011;7431;49.440;11.084;2023-08-06T06:45:59;1.50;;;1.40;;
14686;SDS011;7431;49.440;11.084;2023-08-06T06:48:26;2.20;;;2.00;;
14686;SDS011;7431;49.440;11.084;2023-08-06T06:50:52;1.80;;;1.70;;
14686;SDS011;7431;49.440;11.084;2023-08-06T06:53:18;2.42;;;1.95;;
14686;SDS011;7431;49.440;11.084;2023-08-06T06:55:44;2.30;;;2.10;;
14686;SDS011;7431;49.440;11.084;2023-08-06T06:58:13;3.15;;;1.95;;
14686;SDS011;7431;49.440;11.084;2023-08-06T07:00:39;2.08;;;1.95;;
14686;SDS011;7431;49.440;11.084;2023-08-06T07:03:06;3.35;;;2.15;;
14686;SDS011;7431;49.440;11.084;2023-08-06T07:05:32;2.75;;;2.25;;
14686;SDS011;7431;49.440;11.084;2023-08-06T07:07:58;3.42;;;2.20;;
14686;SDS011;7431;49.440;11.084;2023-08-06T07:10:24;2.10;;;1.90;;
14686;SDS011;7431;49.440;11.084;2023-08-06T07:12:50;2.08;;;1.70;;
14686;SDS011;7431;49.440;11.084;2023-08-06T07:15:16;3.50;;;2.47;;
14686;SDS011;7431;49.440;11.084;2023-08-06T07:17:42;3.42;;;2.13;;
14686;SDS011;7431;49.440;11.084;2023-08-06T07:20:08;1.92;;;1.83;;
14686;SDS011;7431;49.440;11.084;2023-08-06T07:22:34;2.78;;;2.10;;
14686;SDS011;7431;49.440;11.084;2023-08-06T07:25:00;3.00;;;2.17;;
14686;SDS011;7431;49.440;11.084;2023-08-06T07:27:26;3.30;;;2.42;;
14686;SDS011;7431;49.440;11.084;2023-08-06T07:29:52;2.17;;;1.98;;
14686;SDS011;7431;49.440;11.084;2023-08-06T07:32:19;2.08;;;1.98;;
14686;SDS011;7431;49.440;11.084;2023-08-06T07:34:44;1.92;;;1.70;;
14686;SDS011;7431;49.440;11.084;2023-08-06T07:37:10;2.22;;;2.03;;
14686;SDS011;7431;49.440;11.084;2023-08-06T07:39:36;4.20;;;2.22;;
14686;SDS011;7431;49.440;11.084;2023-08-06T07:42:07;2.70;;;2.20;;
14686;SDS011;7431;49.440;11.084;2023-08-06T07:44:33;2.05;;;1.88;;
14686;SDS011;7431;49.440;11.084;2023-08-06T07:46:59;2.15;;;1.65;;
14686;SDS011;7431;49.440;11.084;2023-08-06T07:49:26;2.10;;;1.55;;
14686;SDS011;7431;49.440;11.084;2023-08-06T07:51:52;1.73;;;1.60;;
14686;SDS011;7431;49.440;11.084;2023-08-06T07:54:18;2.05;;;1.48;;
14686;SDS011;7431;49.440;11.084;2023-08-06T07:56:44;1.83;;;1.48;;
14686;SDS011;7431;49.440;11.084;2023-08-06T07:59:10;4.40;;;1.70;;
14686;SDS011;7431;49.440;11.084;2023-08-06T08:01:36;1.55;;;1.40;;
14686;SDS011;7431;49.440;11.084;2023-08-06T08:04:02;1.52;;;1.35;;
14686;SDS011;7431;49.440;11.084;2023-08-06T08:06:29;1.42;;;1.33;;
14686;SDS011;7431;49.440;11.084;2023-08-06T08:08:55;1.50;;;1.40;;
14686;SDS011;7431;49.440;11.084;2023-08-06T08:11:21;1.33;;;1.20;;
14686;SDS011;7431;49.440;11.084;2023-08-06T08:13:47;1.40;;;1.30;;
14686;SDS011;7431;49.440;11.084;2023-08-06T08:16:13;2.47;;;1.25;;
14686;SDS011;7431;49.440;11.084;2023-08-06T08:18:39;2.67;;;1.40;;
14686;SDS011;7431;49.440;11.084;2023-08-06T08:21:05;1.33;;;1.23;;
14686;SDS011;7431;49.440;11.084;2023-08-06T08:23:31;1.55;;;1.10;;
14686;SDS011;7431;49.440;11.084;2023-08-06T08:25:57;1.10;;;1.00;;
14686;SDS011;7431;49.440;11.084;2023-08-06T08:28:23;1.20;;;1.10;;
14686;SDS011;7431;49.440;11.084;2023-08-06T08:30:49;1.17;;;1.08;;
14686;SDS011;7431;49.440;11.084;2023-08-06T08:33:15;1.65;;;1.10;;
14686;SDS011;7431;49.440;11.084;2023-08-06T08:35:41;0.80;;;0.80;;
14686;SDS011;7431;49.440;11.084;2023-08-06T08:38:07;1.10;;;1.00;;
14686;SDS011;7431;49.440;11.084;2023-08-06T08:40:33;2.78;;;1.33;;
14686;SDS011;7431;49.440;11.084;2023-08-06T08:43:03;0.90;;;0.90;;
14686;SDS011;7431;49.440;11.084;2023-08-06T08:45:29;1.30;;;1.20;;
14686;SDS011;7431;49.440;11.084;2023-08-06T08:47:55;0.47;;;0.47;;
14686;SDS011;7431;49.440;11.084;2023-08-06T08:50:22;0.70;;;0.70;;
14686;SDS011;7431;49.440;11.084;2023-08-06T08:52:47;0.52;;;0.52;;
14686;SDS011;7431;49.440;11.084;2023-08-06T08:55:16;0.70;;;0.68;;
14686;SDS011;7431;49.440;11.084;2023-08-06T08:57:42;0.50;;;0.47;;
14686;SDS011;7431;49.440;11.084;2023-08-06T09:00:08;0.90;;;0.30;;
14686;SDS011;7431;49.440;11.084;2023-08-06T09:02:34;0.40;;;0.40;;
14686;SDS011;7431;49.440;11.084;2023-08-06T09:05:02;0.40;;;0.40;;
14686;SDS011;7431;49.440;11.084;2023-08-06T09:07:38;0.68;;;0.68;;
14686;SDS011;7431;49.440;11.084;2023-08-06T09:10:08;0.30;;;0.30;;
14686;SDS011;7431;49.440;11.084;2023-08-06T09:12:36;0.40;;;0.30;;
14686;SDS011;7431;49.440;11.084;2023-08-06T09:15:02;1.20;;;0.70;;
14686;SDS011;7431;49.440;11.084;2023-08-06T09:17:28;0.28;;;0.28;;
14686;SDS011;7431;49.440;11.084;2023-08-06T09:19:54;0.25;;;0.20;;
14686;SDS011;7431;49.440;11.084;2023-08-06T09:22:20;1.30;;;0.50;;
14686;SDS011;7431;49.440;11.084;2023-08-06T09:24:46;0.20;;;0.20;;
14686;SDS011;7431;49.440;11.084;2023-08-06T09:27:13;0.75;;;0.30;;
14686;SDS011;7431;49.440;11.084;2023-08-06T09:29:43;0.35;;;0.35;;
14686;SDS011;7431;49.440;11.084;2023-08-06T09:32:10;0.32;;;0.32;;
14686;SDS011;7431;49.440;11.084;2023-08-06T09:34:35;0.38;;;0.38;;
14686;SDS011;7431;49.440;11.084;2023-08-06T09:37:04;0.25;;;0.25;;
14686;SDS011;7431;49.440;11.084;2023-08-06T09:39:30;0.57;;;0.50;;
14686;SDS011;7431;49.440;11.084;2023-08-06T09:41:57;0.90;;;0.90;;
14686;SDS011;7431;49.440;11.084;2023-08-06T09:44:24;0.85;;;0.68;;
14686;SDS011;7431;49.440;11.084;2023-08-06T09:49:18;0.45;;;0.45;;
14686;SDS011;7431;49.440;11.084;2023-08-06T09:51:44;1.20;;;0.50;;
14686;SDS011;7431;49.440;11.084;2023-08-06T09:54:13;0.38;;;0.38;;
14686;SDS011;7431;49.440;11.084;2023-08-06T09:56:41;0.40;;;0.40;;
14686;SDS011;7431;49.440;11.084;2023-08-06T09:59:08;0.50;;;0.50;;
14686;SDS011;7431;49.440;11.084;2023-08-06T10:01:34;1.35;;;0.30;;
14686;SDS011;7431;49.440;11.084;2023-08-06T10:04:01;0.95;;;0.57;;
14686;SDS011;7431;49.440;11.084;2023-08-06T10:06:28;1.35;;;1.10;;
14686;SDS011;7431;49.440;11.084;2023-08-06T10:08:54;0.98;;;0.70;;
14686;SDS011;7431;49.440;11.084;2023-08-06T10:11:24;0.82;;;0.75;;
14686;SDS011;7431;49.440;11.084;2023-08-06T10:13:54;0.60;;;0.60;;
14686;SDS011;7431;49.440;11.084;2023-08-06T10:16:21;0.80;;;0.80;;
14686;SDS011;7431;49.440;11.084;2023-08-06T10:18:47;4.45;;;3.05;;
14686;SDS011;7431;49.440;11.084;2023-08-06T10:21:14;1.95;;;1.30;;
14686;SDS011;7431;49.440;11.084;2023-08-06T10:23:41;1.80;;;1.60;;
14686;SDS011;7431;49.440;11.084;2023-08-06T10:26:07;2.72;;;1.90;;
14686;SDS011;7431;49.440;11.084;2023-08-06T10:28:37;3.25;;;1.90;;
14686;SDS011;7431;49.440;11.084;2023-08-06T10:31:04;2.20;;;1.33;;
14686;SDS011;7431;49.440;11.084;2023-08-06T10:36:08;0.40;;;0.40;;
14686;SDS011;7431;49.440;11.084;2023-08-06T10:38:34;0.85;;;0.45;;
14686;SDS011;7431;49.440;11.084;2023-08-06T10:41:02;0.35;;;0.35;;
14686;SDS011;7431;49.440;11.084;2023-08-06T10:43:29;0.50;;;0.50;;
14686;SDS011;7431;49.440;11.084;2023-08-06T10:45:58;0.50;;;0.50;;
14686;SDS011;7431;49.440;11.084;2023-08-06T10:51:02;0.52;;;0.50;;
14686;SDS011;7431;49.440;11.084;2023-08-06T10:53:29;0.43;;;0.43;;
14686;SDS011;7431;49.440;11.084;2023-08-06T10:55:55;0.73;;;0.70;;
14686;SDS011;7431;49.440;11.084;2023-08-06T10:58:21;0.38;;;0.30;;
14686;SDS011;7431;49.440;11.084;2023-08-06T11:00:47;0.40;;;0.40;;
14686;SDS011;7431;49.440;11.084;2023-08-06T11:03:15;0.20;;;0.20;;
14686;SDS011;7431;49.440;11.084;2023-08-06T11:05:41;0.30;;;0.30;;
14686;SDS011;7431;49.440;11.084;2023-08-06T11:08:22;0.30;;;0.30;;
14686;SDS011;7431;49.440;11.084;2023-08-06T11:10:48;0.60;;;0.60;;
14686;SDS011;7431;49.440;11.084;2023-08-06T11:13:16;0.50;;;0.50;;
14686;SDS011;7431;49.440;11.084;2023-08-06T11:15:43;0.57;;;0.50;;
14686;SDS011;7431;49.440;11.084;2023-08-06T11:18:10;0.50;;;0.45;;
14686;SDS011;7431;49.440;11.084;2023-08-06T11:20:36;0.52;;;0.52;;
14686;SDS011;7431;49.440;11.084;2023-08-06T11:23:02;0.40;;;0.40;;
14686;SDS011;7431;49.440;11.084;2023-08-06T11:25:29;0.52;;;0.52;;
14686;SDS011;7431;49.440;11.084;2023-08-06T11:27:55;0.40;;;0.40;;
14686;SDS011;7431;49.440;11.084;2023-08-06T11:30:21;0.32;;;0.32;;
14686;SDS011;7431;49.440;11.084;2023-08-06T11:32:47;0.60;;;0.60;;
14686;SDS011;7431;49.440;11.084;2023-08-06T11:35:16;1.23;;;0.60;;
14686;SDS011;7431;49.440;11.084;2023-08-06T11:37:45;0.47;;;0.47;;
14686;SDS011;7431;49.440;11.084;2023-08-06T11:40:12;0.50;;;0.50;;
14686;SDS011;7431;49.440;11.084;2023-08-06T11:42:40;0.52;;;0.52;;
14686;SDS011;7431;49.440;11.084;2023-08-06T11:45:07;0.45;;;0.30;;
14686;SDS011;7431;49.440;11.084;2023-08-06T11:47:34;0.55;;;0.50;;
14686;SDS011;7431;49.440;11.084;2023-08-06T11:50:03;0.65;;;0.50;;
14686;SDS011;7431;49.440;11.084;2023-08-06T11:52:29;0.77;;;0.75;;
14686;SDS011;7431;49.440;11.084;2023-08-06T11:54:59;0.50;;;0.50;;
14686;SDS011;7431;49.440;11.084;2023-08-06T11:57:28;0.80;;;0.80;;
14686;SDS011;7431;49.440;11.084;2023-08-06T11:59:57;0.50;;;0.50;;
14686;SDS011;7431;49.440;11.084;2023-08-06T12:02:23;0.40;;;0.40;;
14686;SDS011;7431;49.440;11.084;2023-08-06T12:04:58;0.65;;;0.50;;
14686;SDS011;7431;49.440;11.084;2023-08-06T12:07:26;0.75;;;0.75;;
14686;SDS011;7431;49.440;11.084;2023-08-06T12:09:52;0.90;;;0.80;;
14686;SDS011;7431;49.440;11.084;2023-08-06T12:12:18;0.63;;;0.47;;
14686;SDS011;7431;49.440;11.084;2023-08-06T12:14:44;2.03;;;1.25;;
14686;SDS011;7431;49.440;11.084;2023-08-06T12:17:10;1.30;;;1.20;;
14686;SDS011;7431;49.440;11.084;2023-08-06T12:19:36;1.85;;;1.70;;
14686;SDS011;7431;49.440;11.084;2023-08-06T12:22:02;0.85;;;0.85;;
14686;SDS011;7431;49.440;11.084;2023-08-06T12:24:28;1.10;;;1.00;;
14686;SDS011;7431;49.440;11.084;2023-08-06T12:26:56;0.52;;;0.52;;
14686;SDS011;7431;49.440;11.084;2023-08-06T12:29:22;0.50;;;0.35;;
14686;SDS011;7431;49.440;11.084;2023-08-06T12:31:48;0.85;;;0.65;;
14686;SDS011;7431;49.440;11.084;2023-08-06T12:34:20;0.70;;;0.70;;
14686;SDS011;7431;49.440;11.084;2023-08-06T12:36:46;0.82;;;0.60;;
14686;SDS011;7431;49.440;11.084;2023-08-06T12:39:12;0.43;;;0.43;;
14686;SDS011;7431;49.440;11.084;2023-08-06T12:41:38;0.50;;;0.50;;
14686;SDS011;7431;49.440;11.084;2023-08-06T12:44:04;0.65;;;0.50;;
14686;SDS011;7431;49.440;11.084;2023-08-06T12:46:31;0.50;;;0.50;;
14686;SDS011;7431;49.440;11.084;2023-08-06T12:48:57;0.80;;;0.55;;
14686;SDS011;7431;49.440;11.084;2023-08-06T12:51:23;0.32;;;0.32;;
14686;SDS011;7431;49.440;11.084;2023-08-06T12:53:49;0.35;;;0.30;;
14686;SDS011;7431;49.440;11.084;2023-08-06T12:56:15;0.57;;;0.30;;
14686;SDS011;7431;49.440;11.084;2023-08-06T12:58:41;0.50;;;0.50;;
14686;SDS011;7431;49.440;11.084;2023-08-06T13:01:08;0.32;;;0.32;;
14686;SDS011;7431;49.440;11.084;2023-08-06T13:03:34;1.02;;;0.90;;
14686;SDS011;7431;49.440;11.084;2023-08-06T13:06:02;0.22;;;0.22;;
14686;SDS011;7431;49.440;11.084;2023-08-06T13:08:28;0.30;;;0.30;;
14686;SDS011;7431;49.440;11.084;2023-08-06T13:10:54;0.93;;;0.65;;
14686;SDS011;7431;49.440;11.084;2023-08-06T13:13:20;0.13;;;0.13;;
14686;SDS011;7431;49.440;11.084;2023-08-06T13:15:46;0.10;;;0.10;;
14686;SDS011;7431;49.440;11.084;2023-08-06T13:18:12;0.52;;;0.52;;
14686;SDS011;7431;49.440;11.084;2023-08-06T13:20:38;0.28;;;0.28;;
14686;SDS011;7431;49.440;11.084;2023-08-06T13:23:07;1.10;;;0.40;;
14686;SDS011;7431;49.440;11.084;2023-08-06T13:25:33;0.63;;;0.50;;
14686;SDS011;7431;49.440;11.084;2023-08-06T13:28:02;0.50;;;0.50;;
14686;SDS011;7431;49.440;11.084;2023-08-06T13:30:28;0.10;;;0.10;;
14686;SDS011;7431;49.440;11.084;2023-08-06T13:32:55;0.30;;;0.30;;
14686;SDS011;7431;49.440;11.084;2023-08-06T13:35:23;0.43;;;0.30;;
14686;SDS011;7431;49.440;11.084;2023-08-06T13:37:49;0.40;;;0.40;;
14686;SDS011;7431;49.440;11.084;2023-08-06T13:40:15;0.40;;;0.40;;
14686;SDS011;7431;49.440;11.084;2023-08-06T13:42:41;0.70;;;0.70;;
14686;SDS011;7431;49.440;11.084;2023-08-06T13:45:07;1.20;;;0.60;;
14686;SDS011;7431;49.440;11.084;2023-08-06T13:47:34;0.43;;;0.43;;
14686;SDS011;7431;49.440;11.084;2023-08-06T13:50:00;0.30;;;0.30;;
14686;SDS011;7431;49.440;11.084;2023-08-06T13:52:26;1.52;;;0.28;;
14686;SDS011;7431;49.440;11.084;2023-08-06T13:54:54;0.30;;;0.30;;
14686;SDS011;7431;49.440;11.084;2023-08-06T13:57:38;0.30;;;0.30;;
14686;SDS011;7431;49.440;11.084;2023-08-06T14:00:05;0.22;;;0.22;;
14686;SDS011;7431;49.440;11.084;2023-08-06T14:02:31;0.40;;;0.40;;
14686;SDS011;7431;49.440;11.084;2023-08-06T14:04:57;0.52;;;0.50;;
14686;SDS011;7431;49.440;11.084;2023-08-06T14:07:23;0.40;;;0.40;;
14686;SDS011;7431;49.440;11.084;2023-08-06T14:09:49;0.30;;;0.30;;
14686;SDS011;7431;49.440;11.084;2023-08-06T14:12:15;0.25;;;0.25;;
14686;SDS011;7431;49.440;11.084;2023-08-06T14:14:41;0.43;;;0.40;;
14686;SDS011;7431;49.440;11.084;2023-08-06T14:17:08;0.40;;;0.40;;
14686;SDS011;7431;49.440;11.084;2023-08-06T14:19:34;0.52;;;0.52;;
14686;SDS011;7431;49.440;11.084;2023-08-06T14:21:59;1.35;;;0.90;;
14686;SDS011;7431;49.440;11.084;2023-08-06T14:24:25;0.30;;;0.30;;
14686;SDS011;7431;49.440;11.084;2023-08-06T14:26:51;0.30;;;0.30;;
14686;SDS011;7431;49.440;11.084;2023-08-06T14:29:18;0.50;;;0.50;;
14686;SDS011;7431;49.440;11.084;2023-08-06T14:31:44;0.47;;;0.40;;
14686;SDS011;7431;49.440;11.084;2023-08-06T14:34:10;0.30;;;0.30;;
14686;SDS011;7431;49.440;11.084;2023-08-06T14:36:35;1.33;;;0.57;;
14686;SDS011;7431;49.440;11.084;2023-08-06T14:39:01;0.68;;;0.60;;
14686;SDS011;7431;49.440;11.084;2023-08-06T14:41:27;0.40;;;0.40;;
14686;SDS011;7431;49.440;11.084;2023-08-06T14:43:53;0.57;;;0.57;;
14686;SDS011;7431;49.440;11.084;2023-08-06T14:46:19;0.82;;;0.50;;
14686;SDS011;7431;49.440;11.084;2023-08-06T14:48:45;0.30;;;0.30;;
14686;SDS011;7431;49.440;11.084;2023-08-06T14:51:11;0.43;;;0.35;;
14686;SDS011;7431;49.440;11.084;2023-08-06T14:53:38;1.08;;;0.60;;